^^
Grace C. Lehan Memorial Weather Station Historical Data
Daily Summary for March 7, 2021 Units:  Metric    English   Both
Daily Weekly Monthly Yearly
  High: Low: Average:
Temperature: 5.8 °C -2.2 °C 1.1 °C
Dew Point: -3 °C -5.2 °C -4.4 °C
Humidity: 80% 52% 67%
Wind Speed: 12.4km/h 0km/h 3.7km/h
Wind Gust: 27.4km/h - -
Wind- - NW
Pressure: 1018.2 hPa 1014.1 hPa -
Precipitation: 0 mm    
 
 
Tabular Data for March 7, 2021
Time Temperature Dew Point Pressure Wind Wind Speed Wind Gust Humidity Rainfall Rate (Hourly) solar
00:04 1 °C -4.2 °C 1014.1 hPa NW 4.5 km/h 22.5 km/h 68% 0 mm 0 W/m2
00:09 0.9 °C -4.3 °C 1014.1 hPa NW 7.4 km/h 14.5 km/h 68% 0 mm 0 W/m2
00:14 0.9 °C -4.3 °C 1014.1 hPa NW 7.2 km/h 19.3 km/h 68.2% 0 mm 0 W/m2
00:19 0.9 °C -4.3 °C 1014.4 hPa NW 4.2 km/h 19.3 km/h 68% 0 mm 0 W/m2
00:24 0.9 °C -4.2 °C 1014.4 hPa NW 3.1 km/h 19.3 km/h 68.3% 0 mm 0 W/m2
00:29 0.9 °C -4.3 °C 1014.4 hPa NW 8.5 km/h 19.3 km/h 68.3% 0 mm 0 W/m2
00:34 0.9 °C -4.2 °C 1014.4 hPa NW 3.2 km/h 19.3 km/h 68.5% 0 mm 0 W/m2
00:39 0.9 °C -4.3 °C 1014.8 hPa NW 7.6 km/h 17.7 km/h 68% 0 mm 0 W/m2
00:44 0.9 °C -4.3 °C 1014.4 hPa NNW 4.7 km/h 17.7 km/h 68% 0 mm 0 W/m2
00:49 0.8 °C -4.4 °C 1014.8 hPa NNW 2.6 km/h 17.7 km/h 68% 0 mm 0 W/m2
00:54 0.8 °C -4.3 °C 1014.8 hPa NW 5.3 km/h 17.7 km/h 68.5% 0 mm 0 W/m2
00:59 0.8 °C -4.2 °C 1014.8 hPa NW 1.4 km/h 17.7 km/h 68.8% 0 mm 0 W/m2
01:04 0.8 °C -4.2 °C 1014.4 hPa NNW 2.4 km/h 17.7 km/h 69% 0 mm 0 W/m2
01:09 0.8 °C -4.3 °C 1014.8 hPa NW 3.2 km/h 16.1 km/h 69% 0 mm 0 W/m2
01:14 0.7 °C -4.3 °C 1014.8 hPa NNW 1.3 km/h 16.1 km/h 69% 0 mm 0 W/m2
01:19 0.7 °C -4.3 °C 1014.8 hPa NNW 1.9 km/h 16.1 km/h 69% 0 mm 0 W/m2
01:24 0.7 °C -4.3 °C 1014.8 hPa NW 3.9 km/h 16.1 km/h 69% 0 mm 0 W/m2
01:29 0.7 °C -4.3 °C 1014.8 hPa NW 6.9 km/h 20.9 km/h 69% 0 mm 0 W/m2
01:34 0.6 °C -4.4 °C 1014.8 hPa NW 4.2 km/h 20.9 km/h 69% 0 mm 0 W/m2
01:39 0.6 °C -4.4 °C 1014.8 hPa NW 3.2 km/h 12.9 km/h 69% 0 mm 0 W/m2
01:44 0.6 °C -4.4 °C 1014.8 hPa NW 6.4 km/h 16.1 km/h 69% 0 mm 0 W/m2
01:49 0.6 °C -4.4 °C 1014.8 hPa NNW 5 km/h 16.1 km/h 69% 0 mm 0 W/m2
01:54 0.6 °C -4.3 °C 1015.1 hPa NNW 5.6 km/h 17.7 km/h 69.7% 0 mm 0 W/m2
01:59 0.6 °C -4.3 °C 1015.1 hPa NW 4.8 km/h 17.7 km/h 70% 0 mm 0 W/m2
02:04 0.5 °C -4.3 °C 1015.1 hPa NW 2.9 km/h 17.7 km/h 70% 0 mm 0 W/m2
02:09 0.5 °C -4.3 °C 1015.1 hPa NW 1.9 km/h 16.1 km/h 70% 0 mm 0 W/m2
02:14 0.4 °C -4.4 °C 1015.5 hPa NW 2.1 km/h 16.1 km/h 70% 0 mm 0 W/m2
02:19 0.4 °C -4.3 °C 1015.5 hPa NW 1.4 km/h 16.1 km/h 70.2% 0 mm 0 W/m2
02:24 0.4 °C -4.2 °C 1015.5 hPa WNW 2.6 km/h 16.1 km/h 71% 0 mm 0 W/m2
02:29 0.3 °C -4.3 °C 1015.5 hPa WNW 4.7 km/h 16.1 km/h 71% 0 mm 0 W/m2
02:34 0.3 °C -4.3 °C 1015.5 hPa NW 2.7 km/h 16.1 km/h 71% 0 mm 0 W/m2
02:39 0.3 °C -4.2 °C 1015.5 hPa NW 6 km/h 16.1 km/h 71.8% 0 mm 0 W/m2
02:44 0.3 °C -4.2 °C 1015.5 hPa NW 5.3 km/h 17.7 km/h 72% 0 mm 0 W/m2
02:49 0.3 °C -4.2 °C 1015.5 hPa NW 4.2 km/h 17.7 km/h 72% 0 mm 0 W/m2
02:54 0.2 °C -4.2 °C 1015.5 hPa NNW 3.4 km/h 19.3 km/h 72% 0 mm 0 W/m2
02:59 0.2 °C -4.2 °C 1015.5 hPa NW 6 km/h 19.3 km/h 72% 0 mm 0 W/m2
03:04 0.2 °C -4.2 °C 1015.5 hPa NW 4 km/h 19.3 km/h 72% 0 mm 0 W/m2
03:09 0.2 °C -4.2 °C 1015.5 hPa NW 3.7 km/h 17.7 km/h 72.5% 0 mm 0 W/m2
03:14 0.2 °C -4.1 °C 1015.5 hPa NNW 2.1 km/h 17.7 km/h 73% 0 mm 0 W/m2
03:19 0.1 °C -4.2 °C 1015.5 hPa NW 4.2 km/h 17.7 km/h 73% 0 mm 0 W/m2
03:24 0.1 °C -4.2 °C 1015.5 hPa NW 1.8 km/h 17.7 km/h 73% 0 mm 0 W/m2
03:29 0.1 °C -4.2 °C 1015.5 hPa NW 7.7 km/h 17.7 km/h 73% 0 mm 0 W/m2
03:34 0 °C -4.3 °C 1015.5 hPa NW 3.7 km/h 17.7 km/h 73% 0 mm 0 W/m2
03:39 0 °C -4.3 °C 1015.5 hPa NW 2.6 km/h 11.3 km/h 73% 0 mm 0 W/m2
03:44 -0.1 °C -4.3 °C 1015.5 hPa NNW 4.5 km/h 11.3 km/h 73% 0 mm 0 W/m2
03:49 -0.1 °C -4.2 °C 1015.5 hPa NW 3.1 km/h 11.3 km/h 73.8% 0 mm 0 W/m2
03:54 -0.1 °C -4.2 °C 1015.5 hPa NNW 3.9 km/h 11.3 km/h 73.8% 0 mm 0 W/m2
03:59 -0.1 °C -4.2 °C 1015.5 hPa NW 5.1 km/h 17.7 km/h 73.6% 0 mm 0 W/m2
04:00 -0.1 °C -4.1 °C 1015.5 hPa Calm   17.7 km/h 74% 0 mm 0 W/m2
04:09 -0.1 °C -4.2 °C 1015.5 hPa NW 4 km/h 14.5 km/h 73.6% 0 mm 0 W/m2
04:14 -0.1 °C -4.3 °C 1015.5 hPa NW 4 km/h 14.5 km/h 73.2% 0 mm 0 W/m2
04:19 -0.1 °C -4.3 °C 1015.5 hPa NW 5.8 km/h 14.5 km/h 73.1% 0 mm 0 W/m2
04:24 -0.1 °C -4.2 °C 1015.5 hPa NNW 1.8 km/h 14.5 km/h 73.7% 0 mm 0 W/m2
04:29 -0.1 °C -4.3 °C 1015.5 hPa NW 4.7 km/h 16.1 km/h 73.5% 0 mm 0 W/m2
04:34 -0.2 °C -4.3 °C 1015.5 hPa NW 3.1 km/h 16.1 km/h 73.9% 0 mm 0 W/m2
04:39 -0.2 °C -4.3 °C 1015.5 hPa NW 3.1 km/h 14.5 km/h 73.6% 0 mm 0 W/m2
04:44 -0.2 °C -4.3 °C 1015.5 hPa NW 4.2 km/h 14.5 km/h 73.7% 0 mm 0 W/m2
04:49 -0.2 °C -4.4 °C 1015.5 hPa NW 3.1 km/h 14.5 km/h 73.2% 0 mm 0 W/m2
04:54 -0.2 °C -4.4 °C 1015.5 hPa NNW 0.6 km/h 14.5 km/h 73.2% 0 mm 0 W/m2
04:59 -0.2 °C -4.5 °C 1015.5 hPa NNW 2.6 km/h 14.5 km/h 73% 0 mm 0 W/m2
05:04 -0.3 °C -4.3 °C 1015.5 hPa NNW 3.5 km/h 14.5 km/h 73.9% 0 mm 0 W/m2
05:09 -0.3 °C -4.4 °C 1015.1 hPa NW 3.2 km/h 17.7 km/h 74% 0 mm 0 W/m2
05:14 -0.3 °C -4.4 °C 1015.1 hPa NW 1.4 km/h 17.7 km/h 74% 0 mm 0 W/m2
05:19 -0.4 °C -4.4 °C 1015.5 hPa NW 3.1 km/h 17.7 km/h 74% 0 mm 0 W/m2
05:24 -0.4 °C -4.5 °C 1015.5 hPa Calm   17.7 km/h 74% 0 mm 0 W/m2
05:29 -0.4 °C -4.5 °C 1015.5 hPa NW 0.6 km/h 17.7 km/h 74% 0 mm 0 W/m2
05:34 -0.5 °C -4.6 °C 1015.5 hPa NW 0.8 km/h 17.7 km/h 74% 0 mm 0 W/m2
05:39 -0.6 °C -4.6 °C 1015.8 hPa NW 0.5 km/h 8 km/h 74% 0 mm 0 W/m2
05:44 -0.6 °C -4.7 °C 1015.8 hPa NW 0.2 km/h 8 km/h 74% 0 mm 0 W/m2
05:49 -0.7 °C -4.6 °C 1015.8 hPa Calm   8 km/h 74.4% 0 mm 0 W/m2
05:54 -0.7 °C -4.7 °C 1015.8 hPa Calm   8 km/h 74.4% 0 mm 0 W/m2
05:59 -0.7 °C -4.6 °C 1015.8 hPa Calm   8 km/h 75% 0 mm 0 W/m2
06:04 -0.8 °C -4.7 °C 1015.8 hPa NW 1.3 km/h 8 km/h 75% 0 mm 0 W/m2
06:09 -0.8 °C -4.7 °C 1016.1 hPa NW 1.3 km/h 8 km/h 75% 0 mm 0 W/m2
06:14 -0.8 °C -4.7 °C 1015.8 hPa NW 1.3 km/h 9.7 km/h 75% 0 mm 0 W/m2
06:19 -0.8 °C -4.7 °C 1016.1 hPa NW 1.8 km/h 9.7 km/h 75% 0 mm 0 W/m2
06:24 -0.8 °C -4.7 °C 1016.1 hPa NNW 1.9 km/h 9.7 km/h 75% 0 mm 0 W/m2
06:29 -0.8 °C -4.7 °C 1016.1 hPa NW 0.5 km/h 9.7 km/h 75% 0 mm 0 W/m2
06:34 -0.8 °C -4.7 °C 1016.5 hPa NW 0.5 km/h 9.7 km/h 75% 0 mm 0 W/m2
06:39 -0.8 °C -4.7 °C 1016.5 hPa NW 2.9 km/h 9.7 km/h 75% 0 mm 0 W/m2
06:44 -0.8 °C -4.7 °C 1016.5 hPa NW 0.2 km/h 9.7 km/h 74.9% 0 mm 0 W/m2
06:49 -0.8 °C -4.7 °C 1016.5 hPa NW 1.4 km/h 9.7 km/h 74.9% 0 mm 0 W/m2
06:54 -0.8 °C -4.7 °C 1016.8 hPa NW 0.3 km/h 9.7 km/h 74.8% 0 mm 0 W/m2
06:59 -0.8 °C -4.7 °C 1016.8 hPa NW 2.4 km/h 9.7 km/h 75% 0 mm 0 W/m2
07:04 -0.8 °C -4.8 °C 1016.8 hPa NNW 3.7 km/h 11.3 km/h 74.4% 0 mm 0 W/m2
07:09 -0.8 °C -4.8 °C 1016.8 hPa NW 1.1 km/h 11.3 km/h 74.3% 0 mm 0 W/m2
07:14 -0.8 °C -4.9 °C 1016.8 hPa NNW 1.4 km/h 11.3 km/h 74% 0 mm 0 W/m2
07:19 -0.8 °C -4.9 °C 1016.8 hPa NNW 2.6 km/h 11.3 km/h 74% 0 mm 0 W/m2
07:24 -0.8 °C -4.9 °C 1016.8 hPa NNW 1.3 km/h 11.3 km/h 74% 0 mm 5 W/m2
07:29 -0.9 °C -4.9 °C 1017.2 hPa NNW 2.1 km/h 11.3 km/h 74% 0 mm 7 W/m2
07:34 -0.9 °C -4.9 °C 1017.2 hPa NNW 1.3 km/h 11.3 km/h 74% 0 mm 9 W/m2
07:39 -0.9 °C -4.9 °C 1017.2 hPa NNW 0.6 km/h 9.7 km/h 74.3% 0 mm 9 W/m2
07:44 -0.9 °C -4.8 °C 1017.2 hPa NNW 2.7 km/h 11.3 km/h 75% 0 mm 11 W/m2
07:49 -0.9 °C -4.8 °C 1017.2 hPa NNW 0.3 km/h 11.3 km/h 75% 0 mm 19 W/m2
07:54 -0.9 °C -4.8 °C 1017.2 hPa NNW 0.3 km/h 11.3 km/h 75% 0 mm 23 W/m2
07:59 -0.9 °C -4.8 °C 1017.2 hPa NNW 1.3 km/h 11.3 km/h 75% 0 mm 14 W/m2
08:04 -0.9 °C -4.8 °C 1017.2 hPa NNW 6.4 km/h 6.4 km/h 75% 0 mm 44 W/m2
08:09 -0.8 °C -4.7 °C 1017.5 hPa NNW 2.6 km/h 9.7 km/h 75% 0 mm 69 W/m2
08:14 -0.6 °C -4.4 °C 1017.5 hPa NNW 0.3 km/h 9.7 km/h 75% 0 mm 95 W/m2
08:19 -0.2 °C -4.2 °C 1017.5 hPa NNW 1.6 km/h 9.7 km/h 74.8% 0 mm 100 W/m2
08:24 0.2 °C -4.1 °C 1017.8 hPa NNW 2.6 km/h 9.7 km/h 73.2% 0 mm 100 W/m2
08:29 0.4 °C -3.9 °C 1017.5 hPa NNW 2.9 km/h 9.7 km/h 72.4% 0 mm 98 W/m2
08:34 0.7 °C -4.1 °C 1017.8 hPa NNW 3.4 km/h 11.3 km/h 70.6% 0 mm 53 W/m2
08:39 0.7 °C -4.1 °C 1017.5 hPa NW 3.9 km/h 16.1 km/h 70% 0 mm 95 W/m2
08:44 0.8 °C -4.1 °C 1017.5 hPa NW 4 km/h 16.1 km/h 69.6% 0 mm 100 W/m2
08:49 0.8 °C -4.2 °C 1017.5 hPa NW 6.3 km/h 22.5 km/h 68.9% 0 mm 163 W/m2
08:54 0.9 °C -4.2 °C 1017.5 hPa NNW 6.1 km/h 22.5 km/h 68.4% 0 mm 163 W/m2
08:59 1 °C -3.9 °C 1017.8 hPa NW 10.8 km/h 22.5 km/h 69.6% 0 mm 97 W/m2
09:04 0.9 °C -4.4 °C 1017.8 hPa NW 7.4 km/h 24.1 km/h 67.3% 0 mm 156 W/m2
09:09 1 °C -4.2 °C 1017.8 hPa NNW 6.1 km/h 25.7 km/h 68% 0 mm 156 W/m2
09:14 1.2 °C -4.1 °C 1017.8 hPa NW 3.4 km/h 25.7 km/h 67.8% 0 mm 139 W/m2
09:19 1.3 °C -4.2 °C 1017.8 hPa NW 5 km/h 25.7 km/h 66.8% 0 mm 135 W/m2
09:24 1.4 °C -4.2 °C 1017.8 hPa NW 7.2 km/h 25.7 km/h 66% 0 mm 179 W/m2
09:29 1.4 °C -4.4 °C 1017.8 hPa NW 6.6 km/h 25.7 km/h 65.4% 0 mm 141 W/m2
09:34 1.4 °C -4.4 °C 1017.8 hPa WNW 9.5 km/h 25.7 km/h 65.2% 0 mm 155 W/m2
09:39 1.4 °C -4.4 °C 1017.8 hPa NW 12.2 km/h 24.1 km/h 65% 0 mm 172 W/m2
09:44 1.4 °C -4.4 °C 1017.8 hPa NNW 9.2 km/h 24.1 km/h 64.8% 0 mm 116 W/m2
09:49 1.5 °C -4.3 °C 1017.8 hPa NW 2.9 km/h 24.1 km/h 65% 0 mm 81 W/m2
09:54 1.6 °C -4.3 °C 1017.8 hPa NW 8.2 km/h 24.1 km/h 64.7% 0 mm 95 W/m2
09:59 1.7 °C -4.4 °C 1017.5 hPa NNW 9.2 km/h 27.4 km/h 64% 0 mm 63 W/m2
10:04 1.7 °C -4.5 °C 1017.5 hPa NW 9.7 km/h 27.4 km/h 63.2% 0 mm 90 W/m2
10:09 1.8 °C -4.5 °C 1017.5 hPa NNW 9.3 km/h 24.1 km/h 63% 0 mm 121 W/m2
10:14 1.9 °C -4.4 °C 1017.5 hPa NW 9.7 km/h 24.1 km/h 62.9% 0 mm 162 W/m2
10:19 2.1 °C -4.4 °C 1017.5 hPa NW 9.5 km/h 24.1 km/h 62% 0 mm 290 W/m2
10:24 2.4 °C -4.2 °C 1017.5 hPa NNW 4.3 km/h 24.1 km/h 62% 0 mm 364 W/m2
10:29 2.8 °C -3.9 °C 1017.2 hPa NW 8 km/h 24.1 km/h 61.5% 0 mm 364 W/m2
10:34 3.3 °C -3.7 °C 1017.2 hPa NW 8.7 km/h 24.1 km/h 60% 0 mm 415 W/m2
10:39 3.7 °C -3.8 °C 1016.8 hPa NW 11.3 km/h 20.9 km/h 57.9% 0 mm 434 W/m2
10:44 3.9 °C -3.8 °C 1016.8 hPa NW 5.8 km/h 20.9 km/h 57% 0 mm 445 W/m2
10:49 4.2 °C -3.6 °C 1016.8 hPa NNW 6.4 km/h 22.5 km/h 57% 0 mm 448 W/m2
10:54 4.5 °C -3.4 °C 1016.8 hPa NNW 8 km/h 22.5 km/h 56.7% 0 mm 422 W/m2
10:59 4.7 °C -3.5 °C 1016.8 hPa NNW 6.1 km/h 22.5 km/h 55.1% 0 mm 378 W/m2
11:04 4.9 °C -3.3 °C 1016.8 hPa NW 5.1 km/h 22.5 km/h 55.3% 0 mm 332 W/m2
11:09 4.9 °C -3.6 °C 1016.8 hPa NW 5.6 km/h 20.9 km/h 54% 0 mm 165 W/m2
11:14 5.1 °C -3.3 °C 1016.8 hPa NW 7.6 km/h 20.9 km/h 54.4% 0 mm 292 W/m2
11:19 5.1 °C -3.8 °C 1016.8 hPa WNW 7.9 km/h 20.9 km/h 52.7% 0 mm 257 W/m2
11:24 4.9 °C -3.3 °C 1016.5 hPa WNW 3.9 km/h 20.9 km/h 54.8% 0 mm 169 W/m2
11:29 4.9 °C -3.6 °C 1016.5 hPa NW 7.4 km/h 20.9 km/h 54.1% 0 mm 288 W/m2
11:34 4.9 °C -3.6 °C 1016.1 hPa NW 5.5 km/h 20.9 km/h 54% 0 mm 309 W/m2
11:39 4.9 °C -3.6 °C 1016.1 hPa WNW 6.4 km/h 16.1 km/h 54.3% 0 mm 144 W/m2
11:44 4.9 °C -3.7 °C 1016.1 hPa WNW 9.5 km/h 19.3 km/h 54% 0 mm 197 W/m2
11:49 4.9 °C -3.4 °C 1016.1 hPa NW 5.3 km/h 19.3 km/h 54.7% 0 mm 225 W/m2
11:54 5.2 °C -3.4 °C 1016.1 hPa NNW 3.2 km/h 19.3 km/h 53.8% 0 mm 279 W/m2
11:59 5.5 °C -3.2 °C 1016.1 hPa WNW 9.5 km/h 19.3 km/h 53.3% 0 mm 244 W/m2
12:00 5.6 °C -3.5 °C 1016.1 hPa NW 6.4 km/h 19.3 km/h 52% 0 mm 244 W/m2
12:09 5.4 °C -3.5 °C 1016.1 hPa NW 5.8 km/h 16.1 km/h 52.5% 0 mm 243 W/m2
12:14 5.4 °C -3.4 °C 1015.8 hPa WNW 11.3 km/h 24.1 km/h 53.2% 0 mm 313 W/m2
12:19 5.4 °C -3.3 °C 1015.8 hPa NW 7.4 km/h 24.1 km/h 53.4% 0 mm 631 W/m2
12:24 5.6 °C -3 °C 1015.8 hPa NW 8.9 km/h 24.1 km/h 54% 0 mm 631 W/m2
12:29 5.8 °C -3.2 °C 1015.8 hPa NW 5.1 km/h 24.1 km/h 52.7% 0 mm 246 W/m2
12:34 5.7 °C -3.2 °C 1015.8 hPa NW 10.5 km/h 24.1 km/h 52.5% 0 mm 237 W/m2
12:39 5.4 °C -3.6 °C 1015.8 hPa NW 10.8 km/h 24.1 km/h 52% 0 mm 146 W/m2
12:44 5.1 °C -3.8 °C 1015.8 hPa NNW 10 km/h 24.1 km/h 52.5% 0 mm 113 W/m2
12:49 4.9 °C -3.8 °C 1015.8 hPa NNW 5.8 km/h 24.1 km/h 53.1% 0 mm 130 W/m2
12:54 4.8 °C -3.7 °C 1015.8 hPa NW 10.6 km/h 24.1 km/h 54.4% 0 mm 130 W/m2
12:59 4.5 °C -3.8 °C 1015.8 hPa WNW 9 km/h 24.1 km/h 54.6% 0 mm 123 W/m2
13:04 4.3 °C -3.9 °C 1015.8 hPa WNW 10.9 km/h 24.1 km/h 55.3% 0 mm 116 W/m2
13:09 4.1 °C -3.9 °C 1015.8 hPa NW 8.4 km/h 20.9 km/h 56.2% 0 mm 139 W/m2
13:14 3.9 °C -3.9 °C 1015.8 hPa NW 9.3 km/h 20.9 km/h 56.5% 0 mm 146 W/m2
13:19 3.9 °C -3.8 °C 1015.8 hPa NW 5.6 km/h 20.9 km/h 57% 0 mm 135 W/m2
13:24 3.9 °C -3.7 °C 1015.8 hPa NW 7.7 km/h 22.5 km/h 57.4% 0 mm 130 W/m2
13:29 4 °C -3.7 °C 1015.8 hPa NW 7.1 km/h 22.5 km/h 57.4% 0 mm 202 W/m2
13:34 4.1 °C -3.5 °C 1015.8 hPa NW 3.2 km/h 22.5 km/h 57.6% 0 mm 330 W/m2
13:39 4.4 °C -3.3 °C 1015.8 hPa NW 2.7 km/h 9.7 km/h 57.2% 0 mm 323 W/m2
13:44 4.7 °C -3.3 °C 1015.8 hPa NW 11.6 km/h 25.7 km/h 56.2% 0 mm 162 W/m2
13:49 4.8 °C -3.6 °C 1015.8 hPa NW 11.4 km/h 25.7 km/h 54.8% 0 mm 137 W/m2
13:54 4.7 °C -3.7 °C 1015.8 hPa NNW 6.4 km/h 25.7 km/h 54.4% 0 mm 113 W/m2
13:59 4.7 °C -3.8 °C 1015.8 hPa NW 11.4 km/h 25.7 km/h 53.9% 0 mm 186 W/m2
14:04 4.6 °C -3.9 °C 1016.1 hPa NW 11.6 km/h 25.7 km/h 54% 0 mm 146 W/m2
14:09 4.4 °C -4 °C 1016.1 hPa NW 9.8 km/h 25.7 km/h 54% 0 mm 209 W/m2
14:14 4.4 °C -4.1 °C 1015.8 hPa NW 6.1 km/h 25.7 km/h 54% 0 mm 204 W/m2
14:19 4.5 °C -4 °C 1016.1 hPa NW 9.8 km/h 25.7 km/h 54% 0 mm 158 W/m2
14:24 4.6 °C -3.9 °C 1016.1 hPa NW 12.4 km/h 27.4 km/h 54% 0 mm 158 W/m2
14:29 4.6 °C -3.9 °C 1016.1 hPa NW 7.2 km/h 27.4 km/h 54% 0 mm 134 W/m2
14:34 4.7 °C -3.8 °C 1016.1 hPa NW 4.2 km/h 27.4 km/h 54% 0 mm 132 W/m2
14:39 4.7 °C -3.8 °C 1016.1 hPa NW 3.7 km/h 19.3 km/h 54.1% 0 mm 214 W/m2
14:40 4.8 °C -3.7 °C 1016.1 hPa WNW 6.9 km/h 19.3 km/h 54.3% 0 mm 28 W/m2
15:00 4.6 °C -3.7 °C 1016.1 hPa WNW 6.4 km/h 20.9 km/h 55% 0 mm 53 W/m2
15:30 4 °C -4 °C 1016.5 hPa NW 8 km/h 22.5 km/h 56% 0 mm 22 W/m2
16:04 3.1 °C -4.4 °C 1016.8 hPa NNW 6.8 km/h 22.5 km/h 57.8% 0 mm 22 W/m2
16:09 3 °C -4.5 °C 1017.2 hPa NW 10.1 km/h 17.7 km/h 58% 0 mm 12 W/m2
16:14 2.9 °C -4.6 °C 1017.2 hPa NW 11.3 km/h 24.1 km/h 58% 0 mm 11 W/m2
16:19 2.8 °C -4.7 °C 1017.2 hPa NW 7.4 km/h 24.1 km/h 58% 0 mm 11 W/m2
16:24 2.7 °C -4.7 °C 1017.2 hPa NW 2.9 km/h 24.1 km/h 58.4% 0 mm 9 W/m2
16:29 2.6 °C -4.6 °C 1017.2 hPa NW 5.5 km/h 24.1 km/h 59% 0 mm 7 W/m2
16:34 2.5 °C -4.7 °C 1016.8 hPa NW 3.1 km/h 24.1 km/h 59.3% 0 mm 0 W/m2
16:39 2.4 °C -4.6 °C 1017.2 hPa NW 3.2 km/h 16.1 km/h 60% 0 mm 0 W/m2
16:44 2.3 °C -4.7 °C 1017.2 hPa NW 3.2 km/h 16.1 km/h 60% 0 mm 0 W/m2
16:49 2.2 °C -4.6 °C 1017.2 hPa NW 1.1 km/h 16.1 km/h 60.7% 0 mm 0 W/m2
16:54 2.1 °C -4.6 °C 1017.2 hPa NW 0.6 km/h 16.1 km/h 61% 0 mm 0 W/m2
16:59 2 °C -4.6 °C 1017.5 hPa WNW 1.6 km/h 16.1 km/h 61.6% 0 mm 0 W/m2
17:04 1.9 °C -4.6 °C 1017.5 hPa WNW 1.9 km/h 9.7 km/h 62% 0 mm 0 W/m2
17:09 1.8 °C -4.7 °C 1017.5 hPa WNW 0.8 km/h 9.7 km/h 62.2% 0 mm 0 W/m2
17:14 1.7 °C -4.6 °C 1017.5 hPa WNW 2.3 km/h 9.7 km/h 63% 0 mm 0 W/m2
17:19 1.6 °C -4.6 °C 1017.5 hPa WNW 1.1 km/h 9.7 km/h 63.2% 0 mm 0 W/m2
17:24 1.6 °C -4.7 °C 1017.5 hPa WNW 1.3 km/h 9.7 km/h 63% 0 mm 0 W/m2
17:29 1.4 °C -4.6 °C 1017.5 hPa WNW 1.1 km/h 9.7 km/h 64% 0 mm 0 W/m2
17:34 1.4 °C -4.7 °C 1017.2 hPa NW 2.7 km/h 17.7 km/h 64% 0 mm 0 W/m2
17:39 1.3 °C -4.8 °C 1017.5 hPa WNW 3.5 km/h 17.7 km/h 64% 0 mm 0 W/m2
17:44 1.3 °C -4.8 °C 1017.5 hPa WNW 3.4 km/h 17.7 km/h 64% 0 mm 0 W/m2
17:49 1.2 °C -4.8 °C 1017.5 hPa WNW 1.3 km/h 17.7 km/h 64% 0 mm 0 W/m2
17:54 1.2 °C -4.9 °C 1017.5 hPa NW 3.1 km/h 17.7 km/h 64.2% 0 mm 0 W/m2
17:59 1.1 °C -4.9 °C 1017.5 hPa NW 5.3 km/h 17.7 km/h 64.4% 0 mm 0 W/m2
18:04 1.1 °C -4.8 °C 1017.5 hPa NW 5.8 km/h 17.7 km/h 64.8% 0 mm 0 W/m2
18:09 1 °C -4.8 °C 1017.8 hPa NW 3.5 km/h 16.1 km/h 65% 0 mm 0 W/m2
18:14 1 °C -4.8 °C 1017.8 hPa NW 1.3 km/h 16.1 km/h 65% 0 mm 0 W/m2
18:19 0.9 °C -4.9 °C 1017.5 hPa NW 5.8 km/h 17.7 km/h 65% 0 mm 0 W/m2
18:24 0.9 °C -4.9 °C 1017.5 hPa NW 6.1 km/h 17.7 km/h 65% 0 mm 0 W/m2
18:29 0.9 °C -4.9 °C 1017.5 hPa NW 2.1 km/h 17.7 km/h 65% 0 mm 0 W/m2
18:34 0.8 °C -4.9 °C 1017.8 hPa NW 2.7 km/h 17.7 km/h 65% 0 mm 0 W/m2
18:39 0.8 °C -5 °C 1017.8 hPa NW 2.1 km/h 11.3 km/h 65% 0 mm 0 W/m2
18:44 0.8 °C -4.8 °C 1017.8 hPa NW 2.9 km/h 11.3 km/h 65.9% 0 mm 0 W/m2
18:49 0.7 °C -4.9 °C 1017.8 hPa NW 2.9 km/h 11.3 km/h 66% 0 mm 0 W/m2
18:54 0.7 °C -4.9 °C 1017.8 hPa NW 2.1 km/h 11.3 km/h 66% 0 mm 0 W/m2
18:59 0.7 °C -4.9 °C 1017.8 hPa NW 2.1 km/h 11.3 km/h 66% 0 mm 0 W/m2
19:04 0.7 °C -4.9 °C 1017.8 hPa NNW 1.1 km/h 11.3 km/h 66.2% 0 mm 0 W/m2
19:09 0.6 °C -4.9 °C 1017.8 hPa NNW 0.5 km/h 6.4 km/h 66.1% 0 mm 0 W/m2
19:14 0.6 °C -4.8 °C 1017.8 hPa NW 1.9 km/h 8 km/h 67% 0 mm 0 W/m2
19:19 0.6 °C -4.9 °C 1017.8 hPa NW 1.6 km/h 9.7 km/h 67% 0 mm 0 W/m2
19:24 0.5 °C -4.9 °C 1018.2 hPa NW 2.4 km/h 17.7 km/h 67% 0 mm 0 W/m2
19:29 0.5 °C -4.8 °C 1018.2 hPa NW 1.3 km/h 17.7 km/h 67.5% 0 mm 0 W/m2
19:34 0.4 °C -4.8 °C 1018.2 hPa NW 0.8 km/h 17.7 km/h 68% 0 mm 0 W/m2
19:39 0.4 °C -4.8 °C 1018.2 hPa NW 1 km/h 6.4 km/h 68.1% 0 mm 0 W/m2
19:44 0.4 °C -4.6 °C 1017.8 hPa NW 1.1 km/h 6.4 km/h 69% 0 mm 0 W/m2
19:49 0.4 °C -4.6 °C 1017.8 hPa NW 1.4 km/h 6.4 km/h 69% 0 mm 0 W/m2
19:54 0.4 °C -4.6 °C 1017.8 hPa NNW 3.4 km/h 9.7 km/h 69% 0 mm 0 W/m2
19:59 0.4 °C -4.6 °C 1017.8 hPa NNW 1.1 km/h 9.7 km/h 69.2% 0 mm 0 W/m2
20:04 0.4 °C -4.4 °C 1017.8 hPa NNW 0.5 km/h 1.6 km/h 70% 0 mm 0 W/m2
20:09 0.4 °C -4.4 °C 1017.8 hPa NNW 2.1 km/h 9.7 km/h 70% 0 mm 0 W/m2
20:14 0.4 °C -4.4 °C 1017.8 hPa NNW 1.8 km/h 9.7 km/h 70% 0 mm 0 W/m2
20:19 0.4 °C -4.4 °C 1017.8 hPa NNW 0.3 km/h 9.7 km/h 70% 0 mm 0 W/m2
20:24 0.4 °C -4.4 °C 1017.8 hPa NNW 0.8 km/h 9.7 km/h 70% 0 mm 0 W/m2
20:29 0.3 °C -4.5 °C 1017.5 hPa NNW 0.5 km/h 9.7 km/h 70% 0 mm 0 W/m2
20:34 0.3 °C -4.4 °C 1017.5 hPa NNW 0.3 km/h 9.7 km/h 70.7% 0 mm 0 W/m2
20:39 0.2 °C -4.6 °C 1017.5 hPa NNW 0.2 km/h 4.8 km/h 70.2% 0 mm 0 W/m2
20:44 0.1 °C -4.6 °C 1017.5 hPa NW 2.6 km/h 11.3 km/h 71% 0 mm 0 W/m2
20:49 -0.1 °C -4.7 °C 1017.5 hPa NNW 1.8 km/h 11.3 km/h 71% 0 mm 0 W/m2
20:54 -0.2 °C -4.6 °C 1017.8 hPa NNW 0.8 km/h 11.3 km/h 71.8% 0 mm 0 W/m2
20:59 -0.2 °C -4.7 °C 1017.8 hPa NNW 0.3 km/h 11.3 km/h 72% 0 mm 0 W/m2
21:04 -0.3 °C -4.7 °C 1017.8 hPa NNW 0.6 km/h 11.3 km/h 72% 0 mm 0 W/m2
21:09 -0.3 °C -4.7 °C 1017.8 hPa Calm   6.4 km/h 72.7% 0 mm 0 W/m2
21:14 -0.4 °C -4.7 °C 1017.5 hPa NNW 0.8 km/h 6.4 km/h 73% 0 mm 0 W/m2
21:19 -0.4 °C -4.7 °C 1017.5 hPa NNW 0.2 km/h 6.4 km/h 73% 0 mm 0 W/m2
21:24 -0.6 °C -4.7 °C 1017.5 hPa NNW 1 km/h 6.4 km/h 73.1% 0 mm 0 W/m2
21:29 -0.6 °C -4.7 °C 1017.5 hPa Calm   6.4 km/h 73.8% 0 mm 0 W/m2
21:34 -0.6 °C -4.7 °C 1017.5 hPa Calm   6.4 km/h 74% 0 mm 0 W/m2
21:39 -0.7 °C -4.7 °C 1017.5 hPa Calm     74% 0 mm 0 W/m2
21:44 -0.7 °C -4.8 °C 1017.5 hPa NNW 0.2 km/h 4.8 km/h 74% 0 mm 0 W/m2
21:49 -0.8 °C -4.7 °C 1017.5 hPa NNW 0.2 km/h 4.8 km/h 74.8% 0 mm 0 W/m2
21:54 -0.8 °C -4.7 °C 1017.5 hPa NNW 0.2 km/h 4.8 km/h 75% 0 mm 0 W/m2
21:59 -0.9 °C -4.8 °C 1017.5 hPa NNW 0.3 km/h 4.8 km/h 75% 0 mm 0 W/m2
22:04 -1 °C -4.7 °C 1017.5 hPa Calm   4.8 km/h 75.9% 0 mm 0 W/m2
22:09 -1.1 °C -4.7 °C 1017.5 hPa Calm     76% 0 mm 0 W/m2
22:14 -1.1 °C -4.8 °C 1017.5 hPa Calm     76% 0 mm 0 W/m2
22:19 -1.2 °C -4.8 °C 1017.5 hPa Calm     76% 0 mm 0 W/m2
22:24 -1.2 °C -4.9 °C 1017.5 hPa Calm     76% 0 mm 0 W/m2
22:29 -1.3 °C -4.9 °C 1017.5 hPa Calm     76.1% 0 mm 0 W/m2
22:34 -1.3 °C -4.8 °C 1017.2 hPa Calm     77% 0 mm 0 W/m2
22:39 -1.4 °C -4.9 °C 1017.2 hPa Calm     77% 0 mm 0 W/m2
22:44 -1.4 °C -4.9 °C 1017.2 hPa Calm     77.2% 0 mm 0 W/m2
22:49 -1.5 °C -4.8 °C 1017.2 hPa Calm     78% 0 mm 0 W/m2
22:54 -1.6 °C -4.9 °C 1017.2 hPa Calm     78% 0 mm 0 W/m2
22:59 -1.6 °C -4.9 °C 1017.2 hPa Calm     78% 0 mm 0 W/m2
23:09 -1.7 °C -5.1 °C 1017.2 hPa Calm     78% 0 mm 0 W/m2
23:14 -1.8 °C -5.1 °C 1017.2 hPa Calm     78% 0 mm 0 W/m2
23:19 -1.8 °C -5.1 °C 1017.2 hPa Calm     78.2% 0 mm 0 W/m2
23:24 -1.8 °C -5 °C 1016.8 hPa Calm     79% 0 mm 0 W/m2
23:29 -1.9 °C -5.1 °C 1016.8 hPa Calm     79% 0 mm 0 W/m2
23:34 -1.9 °C -5.1 °C 1016.8 hPa Calm     79% 0 mm 0 W/m2
23:39 -1.9 °C -5.1 °C 1016.8 hPa Calm     79% 0 mm 0 W/m2
23:44 -2 °C -5.2 °C 1016.8 hPa Calm     79% 0 mm 0 W/m2
23:49 -2.1 °C -5.1 °C 1016.8 hPa Calm     79.9% 0 mm 0 W/m2
23:54 -2.1 °C -5.1 °C 1016.8 hPa Calm     80% 0 mm 0 W/m2
23:59 -2.2 °C -5.1 °C 1017.2 hPa Calm     80% 0 mm 0 W/m2
Hartford County Weather
Compliments of Weather Underground - 2 mb